Time;durP1;ratioP1;P1;durP2;ratioP2;P2;SDS_P1;SDS_P2;PMS_P1;PMS_P2;Temp;Humidity;BMP_temperature;BMP_pressure;BME280_temperature;BME280_humidity;BME280_pressure;Samples;Min_cycle;Max_cycle;Signal;HPM_P1;HPM_P2
2022/12/19 06:00:12;;;;;;;30.33;20.90;;;4.10;97.20;;;;;;1721262;28;20210;-70
2022/12/19 06:01:04;;;;;;;29.58;21.77;;;4.20;97.20;;;;;;1721031;28;20208;-70
2022/12/19 06:01:56;;;;;;;30.67;22.50;;;4.20;97.20;;;;;;1721615;28;20264;-70
2022/12/19 06:02:47;;;;;;;28.90;21.63;;;4.20;97.20;;;;;;1721195;28;20233;-70
2022/12/19 06:03:39;;;;;;;28.38;21.45;;;4.20;97.20;;;;;;1721268;28;20268;-70
2022/12/19 06:04:30;;;;;;;32.50;22.70;;;4.20;97.20;;;;;;1724995;28;20203;-70
2022/12/19 06:05:22;;;;;;;27.47;21.00;;;4.20;97.20;;;;;;1727366;28;20197;-70
2022/12/19 06:06:14;;;;;;;29.17;21.77;;;4.20;97.20;;;;;;1727683;28;20470;-70
2022/12/19 06:07:06;;;;;;;28.90;22.15;;;4.20;97.20;;;;;;1726999;28;20343;-70
2022/12/19 06:07:57;;;;;;;30.95;21.85;;;4.20;97.20;;;;;;1727999;28;20204;-69
2022/12/19 06:08:52;;;;;;;33.30;21.23;;;4.20;97.20;;;;;;1727879;28;20659;-70
2022/12/19 06:09:43;;;;;;;28.70;22.00;;;4.20;97.20;;;;;;1727892;28;20796;-71
2022/12/19 06:10:34;;;;;;;27.33;20.50;;;4.20;97.20;;;;;;1727458;28;20343;-73
2022/12/19 06:11:26;;;;;;;25.73;19.03;;;4.20;97.20;;;;;;1722450;28;20201;-70
2022/12/19 06:12:17;;;;;;;28.30;19.95;;;4.20;97.20;;;;;;1721257;28;20205;-70
2022/12/19 06:13:09;;;;;;;24.97;18.67;;;4.20;97.20;;;;;;1721123;28;20204;-70
2022/12/19 06:13:59;;;;;;;25.58;18.85;;;4.20;97.20;;;;;;1721371;28;20737;-70
2022/12/19 06:14:51;;;;;;;28.23;19.63;;;4.20;97.20;;;;;;1727184;28;20650;-69
2022/12/19 06:15:43;;;;;;;25.38;18.52;;;4.20;97.20;;;;;;1727745;28;20212;-69
2022/12/19 06:16:35;;;;;;;23.65;17.10;;;4.20;97.20;;;;;;1727935;28;20205;-70
2022/12/19 06:17:26;;;;;;;24.10;19.02;;;4.20;97.20;;;;;;1726951;28;20205;-69
2022/12/19 06:18:17;;;;;;;23.27;18.03;;;4.20;97.20;;;;;;1728060;28;20204;-69
2022/12/19 06:19:09;;;;;;;23.63;17.75;;;4.20;97.20;;;;;;1727829;28;20244;-70
2022/12/19 06:20:00;;;;;;;22.38;17.38;;;4.10;97.20;;;;;;1727903;28;20205;-70
2022/12/19 06:20:56;;;;;;;25.63;18.03;;;4.10;97.20;;;;;;1727792;28;20221;-69
2022/12/19 06:21:47;;;;;;;25.98;19.80;;;4.10;97.20;;;;;;1727788;28;20209;-70
2022/12/19 06:22:39;;;;;;;25.50;18.50;;;4.10;97.20;;;;;;1727931;28;20204;-70
2022/12/19 06:23:32;;;;;;;27.10;18.92;;;4.10;97.20;;;;;;1727766;28;20229;-70
2022/12/19 06:24:24;;;;;;;27.33;19.50;;;4.10;97.20;;;;;;1727598;28;20734;-70
2022/12/19 06:25:15;;;;;;;25.25;19.38;;;4.10;97.20;;;;;;1727913;28;20211;-70
2022/12/19 06:26:08;;;;;;;27.53;18.70;;;4.10;97.20;;;;;;1727746;28;20223;-70
2022/12/19 06:26:59;;;;;;;24.90;19.25;;;4.10;97.20;;;;;;1726973;28;20232;-70
2022/12/19 06:27:51;;;;;;;25.57;19.50;;;4.20;97.20;;;;;;1727771;28;20204;-70
2022/12/19 06:28:42;;;;;;;30.08;21.27;;;4.20;97.20;;;;;;1727813;28;20208;-70
2022/12/19 06:29:33;;;;;;;32.80;21.37;;;4.20;97.20;;;;;;1727813;28;20196;-70
2022/12/19 06:30:24;;;;;;;29.20;20.95;;;4.20;97.20;;;;;;1727298;28;20454;-69
2022/12/19 06:31:18;;;;;;;34.50;22.00;;;4.20;97.20;;;;;;1727659;28;20204;-70
2022/12/19 06:32:09;;;;;;;27.27;20.25;;;4.20;97.20;;;;;;1727741;28;20208;-70
2022/12/19 06:33:00;;;;;;;32.13;22.50;;;4.30;97.20;;;;;;1727932;28;20199;-70
2022/12/19 06:33:51;;;;;;;28.98;21.48;;;4.30;97.20;;;;;;1727704;28;20239;-70
2022/12/19 06:34:43;;;;;;;37.50;20.97;;;4.30;97.20;;;;;;1727901;28;20205;-70
2022/12/19 06:35:33;;;;;;;31.15;21.75;;;4.30;97.20;;;;;;1727633;28;20827;-69
2022/12/19 06:36:27;;;;;;;30.70;21.63;;;4.30;97.20;;;;;;1727773;28;20218;-70
2022/12/19 06:37:18;;;;;;;31.73;20.88;;;4.30;97.20;;;;;;1727690;28;20243;-70
2022/12/19 06:38:10;;;;;;;26.83;19.90;;;4.30;97.20;;;;;;1727617;28;20280;-70
2022/12/19 06:39:01;;;;;;;28.92;21.55;;;4.30;97.20;;;;;;1727343;28;20225;-70
2022/12/19 06:39:52;;;;;;;26.73;19.55;;;4.30;97.20;;;;;;1727810;28;20196;-70
2022/12/19 06:43:04;;;;;;;23.85;17.83;;;4.30;97.20;;;;;;1717357;28;20729;-70
2022/12/19 06:43:58;;;;;;;24.10;18.27;;;4.30;97.20;;;;;;1724392;28;20583;-70
2022/12/19 06:44:49;;;;;;;25.55;18.58;;;4.30;97.20;;;;;;1723480;28;20203;-70
2022/12/19 06:45:40;;;;;;;24.13;17.67;;;4.30;97.20;;;;;;1725979;28;20197;-70
2022/12/19 06:46:33;;;;;;;27.85;20.80;;;4.30;97.20;;;;;;1724008;28;20197;-69
2022/12/19 06:47:25;;;;;;;23.88;18.60;;;4.30;97.20;;;;;;1722717;28;20231;-70
2022/12/19 06:48:16;;;;;;;24.38;19.63;;;4.30;97.20;;;;;;1724665;28;20194;-70
2022/12/19 06:49:08;;;;;;;28.87;20.50;;;4.30;97.20;;;;;;1722357;28;20201;-70
2022/12/19 06:49:59;;;;;;;27.60;20.33;;;4.30;97.20;;;;;;1723951;28;20224;-70
2022/12/19 06:50:51;;;;;;;26.83;19.87;;;4.30;97.20;;;;;;1724818;28;20223;-70
2022/12/19 06:51:41;;;;;;;28.35;22.10;;;4.30;97.20;;;;;;1726267;28;20239;-70
2022/12/19 06:52:33;;;;;;;29.10;21.70;;;4.30;97.20;;;;;;1720862;28;20288;-70
2022/12/19 06:53:24;;;;;;;29.83;21.17;;;4.30;97.20;;;;;;1720807;28;20243;-70
2022/12/19 06:54:16;;;;;;;30.57;22.70;;;4.40;97.20;;;;;;1725894;28;20199;-70
2022/12/19 06:55:07;;;;;;;31.00;21.20;;;4.40;97.20;;;;;;1727022;28;20475;-70
2022/12/19 06:56:00;;;;;;;27.63;20.42;;;4.40;97.20;;;;;;1727650;28;20243;-70
2022/12/19 06:56:51;;;;;;;27.25;20.83;;;4.40;97.20;;;;;;1722499;28;20249;-70
2022/12/19 06:57:45;;;;;;;29.93;22.30;;;4.40;97.20;;;;;;1720859;28;20197;-70
2022/12/19 06:58:35;;;;;;;29.08;20.95;;;4.40;97.20;;;;;;1723721;28;20201;-70
2022/12/19 06:59:27;;;;;;;26.93;20.80;;;4.40;97.20;;;;;;1727229;28;20292;-70
2022/12/19 07:00:20;;;;;;;25.35;19.77;;;4.40;97.20;;;;;;1723596;28;20201;-70
2022/12/19 07:01:16;;;;;;;28.85;20.23;;;4.50;97.20;;;;;;1727037;28;20245;-71
2022/12/19 07:02:19;;;;;;;31.63;20.52;;;4.50;97.20;;;;;;1720835;28;20290;-69
2022/12/19 07:03:15;;;;;;;25.50;19.25;;;4.50;97.20;;;;;;1720920;28;20679;-70
2022/12/19 07:04:06;;;;;;;24.70;17.70;;;4.50;97.20;;;;;;1720928;28;20196;-70
2022/12/19 07:05:02;;;;;;;23.23;16.80;;;4.50;97.20;;;;;;1726216;28;20564;-70
2022/12/19 07:05:53;;;;;;;22.10;16.70;;;4.50;97.20;;;;;;1727575;28;20568;-70
2022/12/19 07:06:45;;;;;;;24.17;17.70;;;4.50;97.20;;;;;;1726921;28;20695;-71
2022/12/19 07:07:36;;;;;;;24.20;17.83;;;4.50;97.20;;;;;;1727580;28;20200;-70
2022/12/19 07:08:28;;;;;;;21.30;16.47;;;4.50;97.20;;;;;;1727491;28;20205;-70
2022/12/19 07:09:19;;;;;;;23.25;16.00;;;4.50;97.20;;;;;;1727665;28;20269;-70
2022/12/19 07:10:11;;;;;;;23.10;16.92;;;4.50;97.20;;;;;;1727623;28;20197;-70
2022/12/19 07:11:02;;;;;;;24.38;17.23;;;4.50;97.20;;;;;;1727711;28;20213;-70
2022/12/19 07:11:54;;;;;;;22.67;17.33;;;4.50;97.20;;;;;;1727690;28;20224;-70
2022/12/19 07:12:44;;;;;;;23.08;17.48;;;4.50;97.20;;;;;;1727521;28;20220;-71
2022/12/19 07:13:36;;;;;;;24.10;17.73;;;4.50;97.20;;;;;;1727590;28;20204;-70
2022/12/19 07:14:27;;;;;;;21.65;17.65;;;4.40;97.20;;;;;;1727454;28;20208;-70
2022/12/19 07:15:18;;;;;;;22.37;17.50;;;4.50;97.20;;;;;;1727687;28;20197;-71
2022/12/19 07:16:09;;;;;;;21.83;17.50;;;4.50;97.20;;;;;;1727550;28;20200;-71
2022/12/19 07:17:02;;;;;;;22.37;17.10;;;4.40;97.20;;;;;;1722255;28;20223;-71
2022/12/19 07:17:54;;;;;;;19.88;16.08;;;4.40;97.20;;;;;;1720734;28;20201;-71
2022/12/19 07:18:46;;;;;;;24.10;19.00;;;4.40;97.20;;;;;;1720788;28;20217;-70
2022/12/19 07:19:38;;;;;;;20.77;16.95;;;4.40;97.20;;;;;;1724894;28;20197;-70
2022/12/19 07:20:31;;;;;;;26.38;18.92;;;4.40;97.20;;;;;;1725051;28;20228;-70
2022/12/19 07:21:22;;;;;;;23.75;19.30;;;4.40;97.20;;;;;;1725139;28;20214;-71
2022/12/19 07:22:14;;;;;;;23.70;17.90;;;4.40;97.20;;;;;;1724924;28;20200;-71
2022/12/19 07:23:06;;;;;;;23.15;17.00;;;4.30;97.20;;;;;;1725039;28;20205;-71
2022/12/19 07:23:59;;;;;;;22.38;17.30;;;4.30;97.20;;;;;;1725210;28;20255;-70
2022/12/19 07:24:50;;;;;;;23.52;18.00;;;4.30;97.20;;;;;;1724695;28;20201;-70
2022/12/19 07:25:42;;;;;;;23.20;18.73;;;4.30;97.20;;;;;;1724542;28;20205;-71
2022/12/19 07:26:33;;;;;;;25.77;18.10;;;4.30;97.20;;;;;;1725281;28;20475;-70
2022/12/19 07:27:24;;;;;;;22.93;18.33;;;4.30;97.20;;;;;;1724019;28;20204;-70
2022/12/19 07:28:16;;;;;;;24.35;18.00;;;4.20;97.20;;;;;;1724693;28;20440;-70
2022/12/19 07:29:08;;;;;;;22.80;17.40;;;4.20;97.20;;;;;;1724523;28;20196;-71
2022/12/19 07:29:59;;;;;;;24.17;18.50;;;4.30;97.20;;;;;;1724206;28;20204;-70
2022/12/19 07:30:51;;;;;;;26.07;18.37;;;4.20;97.20;;;;;;1724456;28;20224;-71
2022/12/19 07:31:41;;;;;;;23.63;17.88;;;4.30;97.20;;;;;;1723938;28;20255;-71
2022/12/19 07:32:33;;;;;;;22.93;17.33;;;4.20;97.20;;;;;;1723952;28;20223;-70
2022/12/19 07:33:25;;;;;;;25.70;19.70;;;4.20;97.20;;;;;;1724197;28;20228;-71
2022/12/19 07:34:17;;;;;;;25.08;18.58;;;4.20;97.20;;;;;;1723324;28;20203;-70
2022/12/19 07:35:09;;;;;;;26.40;18.33;;;4.20;97.20;;;;;;1719875;28;20583;-70
2022/12/19 07:36:00;;;;;;;23.80;17.85;;;4.30;97.20;;;;;;1723084;28;20524;-71
2022/12/19 07:36:51;;;;;;;23.77;17.50;;;4.30;97.20;;;;;;1722716;28;20196;-71
2022/12/19 07:37:43;;;;;;;28.75;20.13;;;4.30;97.20;;;;;;1724679;28;20203;-71
2022/12/19 07:38:35;;;;;;;27.73;21.02;;;4.30;97.20;;;;;;1723604;28;20215;-70
2022/12/19 07:39:26;;;;;;;25.98;19.38;;;4.30;97.20;;;;;;1723308;28;20198;-71
2022/12/19 07:40:17;;;;;;;24.75;20.25;;;4.30;97.20;;;;;;1723034;28;20224;-71
2022/12/19 07:41:09;;;;;;;23.93;19.10;;;4.40;97.20;;;;;;1723468;28;20188;-70
2022/12/19 07:42:00;;;;;;;23.92;18.50;;;4.40;97.20;;;;;;1723441;28;20208;-70
2022/12/19 07:42:51;;;;;;;23.73;18.53;;;4.40;97.20;;;;;;1723829;28;20192;-70
2022/12/19 07:43:42;;;;;;;22.17;17.38;;;4.40;97.20;;;;;;1723802;28;20200;-70
2022/12/19 07:44:34;;;;;;;25.17;18.10;;;4.40;97.20;;;;;;1724389;28;20651;-71
2022/12/19 07:45:24;;;;;;;25.13;17.98;;;4.40;97.20;;;;;;1723372;28;20567;-71
2022/12/19 07:46:16;;;;;;;23.20;18.53;;;4.50;97.20;;;;;;1724177;28;20196;-71
2022/12/19 07:47:07;;;;;;;22.75;17.15;;;4.50;97.20;;;;;;1723355;28;20658;-71
2022/12/19 07:48:00;;;;;;;24.00;18.87;;;4.50;97.20;;;;;;1724704;28;20559;-70
2022/12/19 07:48:52;;;;;;;21.88;17.00;;;4.50;97.20;;;;;;1724298;28;20259;-71
2022/12/19 07:49:44;;;;;;;22.30;16.75;;;4.50;97.20;;;;;;1724611;28;20706;-71
2022/12/19 07:50:35;;;;;;;23.52;17.17;;;4.50;97.20;;;;;;1724736;28;20229;-71
2022/12/19 07:51:27;;;;;;;22.73;18.63;;;4.50;97.20;;;;;;1724697;28;20184;-71
2022/12/19 07:52:17;;;;;;;24.52;18.23;;;4.50;97.20;;;;;;1724162;28;20259;-71
2022/12/19 07:53:09;;;;;;;25.87;18.67;;;4.50;97.20;;;;;;1724404;28;20230;-71
2022/12/19 07:54:00;;;;;;;25.45;18.75;;;4.40;97.20;;;;;;1724539;28;20475;-71
2022/12/19 07:54:51;;;;;;;24.27;18.20;;;4.40;97.20;;;;;;1724298;28;20200;-71
2022/12/19 07:55:42;;;;;;;27.23;20.15;;;4.50;97.20;;;;;;1725012;28;20239;-70
2022/12/19 07:56:34;;;;;;;25.03;18.87;;;4.50;97.20;;;;;;1725252;28;20197;-71
2022/12/19 07:57:25;;;;;;;25.15;19.40;;;4.50;97.20;;;;;;1724898;28;20342;-71
2022/12/19 07:58:16;;;;;;;25.10;19.53;;;4.50;97.20;;;;;;1725377;28;20204;-71
2022/12/19 07:59:07;;;;;;;25.30;19.02;;;4.50;97.20;;;;;;1724936;28;20220;-71
2022/12/19 07:59:59;;;;;;;26.33;19.20;;;4.50;97.20;;;;;;1724946;28;20204;-70
2022/12/19 08:00:53;;;;;;;23.27;18.25;;;4.50;97.20;;;;;;1725067;28;20227;-71
2022/12/19 08:01:45;;;;;;;23.15;17.95;;;4.50;97.20;;;;;;1724760;28;20200;-71
2022/12/19 08:02:36;;;;;;;24.65;19.15;;;4.50;97.20;;;;;;1725106;28;20232;-70
2022/12/19 08:03:31;;;;;;;22.03;18.53;;;4.50;97.20;;;;;;1725371;28;20204;-70
2022/12/19 08:04:23;;;;;;;24.65;18.33;;;4.50;97.20;;;;;;1725253;28;20255;-71
2022/12/19 08:05:15;;;;;;;23.92;18.13;;;4.60;97.20;;;;;;1724880;28;20670;-71
2022/12/19 08:06:06;;;;;;;26.27;19.38;;;4.60;97.20;;;;;;1724954;28;20235;-71
2022/12/19 08:06:58;;;;;;;27.00;19.65;;;4.60;97.20;;;;;;1723571;28;20259;-71
2022/12/19 08:07:51;;;;;;;27.60;20.25;;;4.60;97.20;;;;;;1724710;28;20200;-71
2022/12/19 08:08:43;;;;;;;26.85;20.15;;;4.60;97.20;;;;;;1724966;28;20201;-71
2022/12/19 08:09:34;;;;;;;20.95;16.83;;;4.60;97.20;;;;;;1725103;28;20208;-71
2022/12/19 08:10:26;;;;;;;25.27;20.10;;;4.60;97.20;;;;;;1725561;28;20279;-71
2022/12/19 08:11:21;;;;;;;24.90;19.30;;;4.60;97.20;;;;;;1724843;28;20208;-71
2022/12/19 08:12:12;;;;;;;24.30;18.83;;;4.60;97.20;;;;;;1725031;28;20208;-71
2022/12/19 08:13:03;;;;;;;27.25;19.92;;;4.60;97.20;;;;;;1724425;28;20224;-71
2022/12/19 08:13:55;;;;;;;22.73;18.13;;;4.60;97.20;;;;;;1724973;28;20211;-70
2022/12/19 08:14:46;;;;;;;22.02;17.90;;;4.60;97.20;;;;;;1724855;28;20628;-70
2022/12/19 08:15:37;;;;;;;22.43;17.80;;;4.60;97.20;;;;;;1725050;28;20192;-71
2022/12/19 08:16:29;;;;;;;27.27;19.63;;;4.60;97.20;;;;;;1724577;28;20204;-70
2022/12/19 08:17:20;;;;;;;22.80;17.75;;;4.60;97.20;;;;;;1724800;28;20235;-70
2022/12/19 08:18:12;;;;;;;23.70;18.57;;;4.50;97.20;;;;;;1724931;28;20196;-71
2022/12/19 08:19:03;;;;;;;23.95;18.70;;;4.50;97.20;;;;;;1724803;28;20212;-71
2022/12/19 08:19:56;;;;;;;24.90;18.50;;;4.50;97.20;;;;;;1725129;28;20197;-71
2022/12/19 08:20:46;;;;;;;26.83;20.42;;;4.50;97.20;;;;;;1724808;28;20278;-71
2022/12/19 08:21:38;;;;;;;27.07;20.10;;;4.50;97.20;;;;;;1724938;28;20204;-70
2022/12/19 08:22:30;;;;;;;24.25;19.25;;;4.50;97.20;;;;;;1724692;28;20228;-70
2022/12/19 08:23:21;;;;;;;24.85;18.48;;;4.50;97.20;;;;;;1725123;28;20196;-71
2022/12/19 08:24:12;;;;;;;25.60;19.55;;;4.50;97.20;;;;;;1725341;28;20647;-72
2022/12/19 08:25:05;;;;;;;27.30;19.33;;;4.50;97.20;;;;;;1724578;28;20557;-71
2022/12/19 08:26:00;;;;;;;24.10;18.67;;;4.50;97.20;;;;;;1725029;28;20378;-71
2022/12/19 08:26:52;;;;;;;26.67;19.80;;;4.50;97.20;;;;;;1723600;28;20227;-70
2022/12/19 08:27:42;;;;;;;24.30;18.92;;;4.50;97.20;;;;;;1724785;28;20714;-71
2022/12/19 08:28:35;;;;;;;28.27;19.23;;;4.50;97.20;;;;;;1725012;28;20558;-71
2022/12/19 08:29:27;;;;;;;26.13;20.73;;;4.50;97.20;;;;;;1724706;28;20212;-71
2022/12/19 08:30:18;;;;;;;31.85;23.10;;;4.50;97.20;;;;;;1725155;28;20197;-70
2022/12/19 08:31:12;;;;;;;27.40;20.43;;;4.50;97.20;;;;;;1724538;28;20205;-71
2022/12/19 08:32:03;;;;;;;24.65;19.60;;;4.50;97.20;;;;;;1724733;28;20207;-71
2022/12/19 08:32:54;;;;;;;27.38;20.88;;;4.50;97.20;;;;;;1724892;28;20197;-71
2022/12/19 08:33:46;;;;;;;25.38;19.40;;;4.50;97.20;;;;;;1725644;28;20201;-71
2022/12/19 08:34:37;;;;;;;25.00;19.48;;;4.50;97.20;;;;;;1724629;28;20196;-71
2022/12/19 08:35:30;;;;;;;24.48;19.45;;;4.60;97.20;;;;;;1724841;28;20204;-71
2022/12/19 08:36:22;;;;;;;24.30;19.15;;;4.60;97.20;;;;;;1724820;28;20565;-71
2022/12/19 08:37:13;;;;;;;24.98;19.52;;;4.60;97.20;;;;;;1723688;28;20196;-70
2022/12/19 08:38:05;;;;;;;24.30;18.53;;;4.60;97.20;;;;;;1725071;28;22007;-71
2022/12/19 08:38:56;;;;;;;26.80;20.42;;;4.60;97.20;;;;;;1726294;28;20196;-71
2022/12/19 08:39:47;;;;;;;25.03;19.47;;;4.60;97.20;;;;;;1726156;28;20204;-71
2022/12/19 08:40:38;;;;;;;24.73;18.27;;;4.70;97.20;;;;;;1726032;28;20251;-70
2022/12/19 08:41:30;;;;;;;23.60;18.63;;;4.60;97.20;;;;;;1726302;28;20212;-70
2022/12/19 08:42:20;;;;;;;23.40;19.17;;;4.60;97.20;;;;;;1726128;28;20215;-71
2022/12/19 08:43:12;;;;;;;22.33;16.80;;;4.70;97.20;;;;;;1727062;28;20201;-71
2022/12/19 08:44:03;;;;;;;22.50;17.65;;;4.70;97.20;;;;;;1726126;28;20274;-71
2022/12/19 08:44:54;;;;;;;24.93;18.10;;;4.70;97.20;;;;;;1726456;28;20192;-71
2022/12/19 08:45:48;;;;;;;23.67;17.65;;;4.70;97.20;;;;;;1726063;28;21269;-71
2022/12/19 08:46:39;;;;;;;23.75;17.55;;;4.70;97.20;;;;;;1725721;28;20213;-71
2022/12/19 08:47:31;;;;;;;24.37;18.13;;;4.70;97.20;;;;;;1725336;28;20212;-71
2022/12/19 08:48:22;;;;;;;24.92;17.80;;;4.70;97.20;;;;;;1726027;28;20227;-71
2022/12/19 08:49:14;;;;;;;22.75;18.42;;;4.70;97.20;;;;;;1726320;28;20200;-71
2022/12/19 08:50:06;;;;;;;23.30;17.88;;;4.70;97.20;;;;;;1726285;28;20200;-71
2022/12/19 08:51:01;;;;;;;22.42;17.65;;;4.70;97.20;;;;;;1725855;28;20274;-71
2022/12/19 08:51:52;;;;;;;24.30;18.10;;;4.70;97.20;;;;;;1726090;28;20193;-71
2022/12/19 08:52:43;;;;;;;24.93;17.77;;;4.70;97.20;;;;;;1726128;28;20224;-71
2022/12/19 08:53:36;;;;;;;22.70;18.58;;;4.70;97.20;;;;;;1726157;28;20223;-71
2022/12/19 08:54:28;;;;;;;23.08;17.85;;;4.80;97.20;;;;;;1726047;28;20196;-71
2022/12/19 08:55:18;;;;;;;22.02;17.30;;;4.80;97.20;;;;;;1726039;28;20204;-71
2022/12/19 08:56:13;;;;;;;22.50;18.00;;;4.80;97.20;;;;;;1726570;28;20193;-71
2022/12/19 08:57:04;;;;;;;22.83;17.63;;;4.80;97.20;;;;;;1724703;28;20641;-71
2022/12/19 08:57:56;;;;;;;23.93;19.53;;;4.80;97.20;;;;;;1726122;28;20185;-71
2022/12/19 08:58:47;;;;;;;24.23;19.73;;;4.80;97.20;;;;;;1726042;28;20219;-71
2022/12/19 08:59:39;;;;;;;26.55;19.50;;;4.80;97.20;;;;;;1725912;28;20212;-71
2022/12/19 09:00:29;;;;;;;24.85;18.70;;;4.80;97.20;;;;;;1726115;28;20613;-71
2022/12/19 09:01:22;;;;;;;22.33;17.80;;;4.80;97.20;;;;;;1726249;28;20534;-71
2022/12/19 09:02:15;;;;;;;23.70;17.75;;;4.80;97.20;;;;;;1726228;28;20674;-71
2022/12/19 09:03:06;;;;;;;22.70;17.33;;;4.80;97.20;;;;;;1726870;28;20262;-71
2022/12/19 09:03:58;;;;;;;20.33;17.47;;;4.80;97.20;;;;;;1726419;28;20193;-71
2022/12/19 09:04:49;;;;;;;22.10;18.13;;;4.80;97.20;;;;;;1725805;28;20232;-71
2022/12/19 09:05:41;;;;;;;25.00;18.27;;;4.80;97.20;;;;;;1726188;28;20784;-71
2022/12/19 09:06:33;;;;;;;23.63;17.08;;;4.80;97.20;;;;;;1726006;28;20205;-71
2022/12/19 09:07:25;;;;;;;25.73;19.30;;;4.80;97.20;;;;;;1725266;28;20220;-71
2022/12/19 09:08:15;;;;;;;28.85;18.38;;;4.80;97.20;;;;;;1726028;28;20200;-71
2022/12/19 09:09:07;;;;;;;24.53;18.57;;;4.80;97.20;;;;;;1725913;28;20200;-71
2022/12/19 09:09:58;;;;;;;24.83;18.95;;;4.80;97.20;;;;;;1726672;28;20200;-71
2022/12/19 09:10:50;;;;;;;28.47;19.73;;;4.80;97.20;;;;;;1726555;28;20220;-71
2022/12/19 09:11:42;;;;;;;24.33;18.20;;;4.90;97.20;;;;;;1725848;28;20200;-71
2022/12/19 09:12:32;;;;;;;25.25;18.73;;;4.90;97.20;;;;;;1726088;28;20204;-71
2022/12/19 09:13:24;;;;;;;24.80;18.17;;;4.90;97.20;;;;;;1725877;28;20197;-72
2022/12/19 09:14:16;;;;;;;22.80;19.25;;;5.00;97.20;;;;;;1725930;28;20228;-71
2022/12/19 09:15:07;;;;;;;23.10;16.77;;;5.00;97.20;;;;;;1725705;28;20201;-71
2022/12/19 09:16:00;;;;;;;23.65;17.25;;;5.10;97.20;;;;;;1726803;28;20585;-71
2022/12/19 09:16:51;;;;;;;22.00;18.10;;;5.10;97.20;;;;;;1725058;28;20214;-71
2022/12/19 09:17:43;;;;;;;22.87;16.90;;;5.10;97.20;;;;;;1726011;28;20197;-71
2022/12/19 09:18:34;;;;;;;23.50;17.75;;;5.20;97.20;;;;;;1725847;28;20212;-71
2022/12/19 09:19:25;;;;;;;21.33;16.53;;;5.20;97.20;;;;;;1726002;28;20204;-71
2022/12/19 09:20:16;;;;;;;21.35;17.42;;;5.30;97.20;;;;;;1726084;28;20906;-71
2022/12/19 09:21:08;;;;;;;21.27;16.80;;;5.40;97.20;;;;;;1725593;28;20192;-71
2022/12/19 09:22:01;;;;;;;19.50;16.08;;;5.50;97.20;;;;;;1725979;28;20203;-71
2022/12/19 09:22:52;;;;;;;19.17;16.08;;;5.60;97.20;;;;;;1726479;28;20196;-71
2022/12/19 09:23:48;;;;;;;21.80;16.53;;;5.70;97.20;;;;;;1726009;28;20279;-72
2022/12/19 09:24:39;;;;;;;21.90;16.45;;;5.80;97.20;;;;;;1726165;28;20439;-71
2022/12/19 09:25:31;;;;;;;20.83;16.08;;;5.90;97.20;;;;;;1725751;28;20271;-71
2022/12/19 09:26:23;;;;;;;21.63;15.13;;;6.00;97.20;;;;;;1725965;28;20506;-71
2022/12/19 09:27:14;;;;;;;19.98;15.90;;;6.20;97.20;;;;;;1724890;28;20303;-71
2022/12/19 09:28:05;;;;;;;19.58;15.43;;;6.40;97.20;;;;;;1726131;28;20707;-71
2022/12/19 09:28:58;;;;;;;18.23;15.53;;;6.50;97.20;;;;;;1726300;28;20654;-71
2022/12/19 09:29:49;;;;;;;23.38;15.98;;;6.70;97.20;;;;;;1726499;28;20287;-71
2022/12/19 09:30:41;;;;;;;21.80;18.17;;;6.80;97.20;;;;;;1725744;28;20228;-71
2022/12/19 09:31:32;;;;;;;23.25;17.13;;;6.90;97.20;;;;;;1725620;28;20564;-71
2022/12/19 09:32:23;;;;;;;23.73;17.40;;;7.00;97.20;;;;;;1726007;28;20255;-71
2022/12/19 09:33:15;;;;;;;22.13;17.57;;;7.10;97.20;;;;;;1725947;28;20197;-71
2022/12/19 09:34:06;;;;;;;22.23;17.35;;;7.30;97.20;;;;;;1725636;28;20223;-71
2022/12/19 09:34:58;;;;;;;21.70;17.30;;;7.40;97.20;;;;;;1725962;28;20203;-71
2022/12/19 09:35:50;;;;;;;19.73;16.48;;;7.50;97.20;;;;;;1726280;28;20196;-71
2022/12/19 09:36:41;;;;;;;25.45;16.77;;;7.60;97.20;;;;;;1725783;28;21142;-71
2022/12/19 09:37:33;;;;;;;19.13;15.25;;;7.70;97.20;;;;;;1726067;28;20193;-71
2022/12/19 09:38:26;;;;;;;19.67;14.40;;;7.90;97.20;;;;;;1725747;28;20200;-71
2022/12/19 09:39:17;;;;;;;18.90;15.30;;;8.00;97.20;;;;;;1725565;28;20210;-71
2022/12/19 09:40:15;;;;;;;20.90;15.60;;;8.10;97.20;;;;;;1725859;28;20208;-71
2022/12/19 09:41:23;;;;;;;19.25;15.27;;;8.20;97.20;;;;;;1725605;28;20443;-71
2022/12/19 09:42:35;;;;;;;22.70;16.92;;;8.40;97.20;;;;;;1726034;28;20602;-71
2022/12/19 09:43:38;;;;;;;17.83;14.55;;;8.40;97.20;;;;;;1725809;28;20197;-71
2022/12/19 09:44:44;;;;;;;19.00;15.88;;;8.50;97.20;;;;;;1725972;28;20243;-71
2022/12/19 09:45:46;;;;;;;18.02;14.48;;;8.40;97.20;;;;;;1725741;28;20640;-71
2022/12/19 09:46:47;;;;;;;17.30;14.68;;;8.40;97.20;;;;;;1725384;28;20270;-71
2022/12/19 09:47:42;;;;;;;20.08;17.75;;;8.30;97.20;;;;;;1725330;28;20217;-71
2022/12/19 09:48:34;;;;;;;20.02;16.38;;;8.20;97.20;;;;;;1725602;28;20288;-71
2022/12/19 09:49:28;;;;;;;18.02;15.68;;;8.00;97.20;;;;;;1726529;28;20673;-71
2022/12/19 09:50:30;;;;;;;25.25;17.75;;;7.90;97.20;;;;;;1725183;28;20351;-71
2022/12/19 09:51:30;;;;;;;20.02;16.80;;;7.90;97.20;;;;;;1725778;28;20193;-71
2022/12/19 09:52:29;;;;;;;20.85;16.70;;;7.80;97.20;;;;;;1725654;28;20651;-71
2022/12/19 09:53:27;;;;;;;23.08;16.83;;;7.70;97.20;;;;;;1725715;28;20244;-71
2022/12/19 09:54:24;;;;;;;19.08;16.15;;;7.70;97.20;;;;;;1725773;28;20552;-71
2022/12/19 09:55:20;;;;;;;18.30;15.13;;;7.70;97.20;;;;;;1725787;28;20227;-71
2022/12/19 09:56:14;;;;;;;20.58;15.98;;;7.70;97.20;;;;;;1725118;28;20564;-71
2022/12/19 09:57:13;;;;;;;20.50;16.55;;;7.80;97.20;;;;;;1724831;28;20196;-71
2022/12/19 09:58:10;;;;;;;18.88;15.48;;;7.90;97.20;;;;;;1725439;28;20220;-71
2022/12/19 09:59:09;;;;;;;18.08;15.13;;;7.90;97.20;;;;;;1725773;28;20643;-71
2022/12/19 10:00:04;;;;;;;18.35;16.00;;;8.00;97.20;;;;;;1725668;28;20197;-71
2022/12/19 10:00:58;;;;;;;18.80;16.17;;;8.10;97.20;;;;;;1725770;28;20560;-71
2022/12/19 10:01:55;;;;;;;18.75;14.95;;;8.10;97.20;;;;;;1725437;28;20237;-71
2022/12/19 10:02:53;;;;;;;19.20;15.38;;;8.20;97.20;;;;;;1725091;28;20215;-71
2022/12/19 10:03:51;;;;;;;19.80;14.85;;;8.20;97.20;;;;;;1726466;28;20209;-71
2022/12/19 10:04:49;;;;;;;17.98;16.08;;;8.30;97.20;;;;;;1725885;28;20275;-70
2022/12/19 10:05:44;;;;;;;21.42;17.08;;;8.40;97.20;;;;;;1725362;28;20597;-71
2022/12/19 10:06:36;;;;;;;20.50;15.43;;;8.50;97.20;;;;;;1725388;28;20623;-71
2022/12/19 10:07:27;;;;;;;23.40;16.20;;;8.50;97.20;;;;;;1724851;28;20252;-70
2022/12/19 10:08:25;;;;;;;21.10;15.37;;;8.60;97.20;;;;;;1725616;28;21445;-70
2022/12/19 10:09:20;;;;;;;19.40;14.80;;;8.60;97.20;;;;;;1725633;28;20451;-71
2022/12/19 10:10:15;;;;;;;18.98;14.07;;;8.70;97.20;;;;;;1725789;28;20205;-70
2022/12/19 10:11:09;;;;;;;18.20;16.10;;;8.70;97.20;;;;;;1725744;28;20189;-71
2022/12/19 10:12:17;;;;;;;16.40;13.27;;;8.70;97.20;;;;;;1725644;28;20647;-71
2022/12/19 10:13:16;;;;;;;15.20;12.00;;;8.70;97.20;;;;;;1725475;28;20224;-70
2022/12/19 10:14:22;;;;;;;16.25;13.57;;;8.70;97.20;;;;;;1725531;28;20235;-70
2022/12/19 10:15:18;;;;;;;13.73;11.63;;;8.60;97.20;;;;;;1725164;28;20231;-70
2022/12/19 10:16:16;;;;;;;16.30;12.75;;;8.50;97.20;;;;;;1725535;28;20209;-71
2022/12/19 10:17:20;;;;;;;15.63;13.00;;;8.50;97.20;;;;;;1725005;28;20746;-70
2022/12/19 10:18:24;;;;;;;17.15;13.40;;;8.40;97.20;;;;;;1725634;28;20185;-70
2022/12/19 10:19:22;;;;;;;15.18;12.70;;;8.40;97.20;;;;;;1725504;28;20300;-70
2022/12/19 10:20:21;;;;;;;14.45;12.18;;;8.30;97.20;;;;;;1725490;28;20197;-70
2022/12/19 10:21:25;;;;;;;15.88;12.95;;;8.30;97.20;;;;;;1725476;28;20220;-71
2022/12/19 10:22:25;;;;;;;15.45;13.15;;;8.20;97.20;;;;;;1725706;28;20193;-70
2022/12/19 10:23:37;;;;;;;14.60;12.45;;;8.20;97.20;;;;;;1725722;28;20204;-70
2022/12/19 10:25:01;;;;;;;16.83;13.23;;;8.10;97.20;;;;;;1725233;28;20249;-71
2022/12/19 10:25:59;;;;;;;15.98;13.02;;;8.10;97.20;;;;;;1725418;28;20208;-70
2022/12/19 10:26:52;;;;;;;17.58;13.82;;;8.00;97.20;;;;;;1724555;28;20197;-70
2022/12/19 10:27:48;;;;;;;16.30;14.27;;;8.00;97.20;;;;;;1725217;28;20251;-70
2022/12/19 10:29:06;;;;;;;16.30;14.10;;;7.90;97.20;;;;;;1725592;28;20201;-70
2022/12/19 10:30:09;;;;;;;17.60;14.35;;;8.00;97.20;;;;;;1726181;28;20224;-70
2022/12/19 10:31:11;;;;;;;16.85;14.07;;;8.10;97.20;;;;;;1725164;28;20710;-71
2022/12/19 10:32:06;;;;;;;17.95;14.93;;;8.30;97.20;;;;;;1725430;28;20196;-71
2022/12/19 10:33:07;;;;;;;17.25;13.65;;;8.60;97.20;;;;;;1725570;28;20189;-70
2022/12/19 10:34:03;;;;;;;17.70;13.90;;;9.10;97.20;;;;;;1725382;28;20220;-70
2022/12/19 10:34:55;;;;;;;16.48;13.77;;;9.80;97.20;;;;;;1725426;28;20280;-70